Terminal Aerodrome Forecast
Issued by NWS

Home | Current Version | Previous Version | Text Only | Print | Product List | Glossary On
Versions: 1 2 3 4 5 6 7 8 9 10 11 12 13 14 15 16 17 18 19 20 21
000
FTUS41 KBTV 011700
TAFMSS
TAF
KMSS 011720Z 0118/0218 26007KT P6SM SCT035
      TEMPO 0118/0120 BKN035
     FM020000 21003KT P6SM SCT080 BKN200
     FM020600 21005KT P6SM SCT060 BKN100
     FM021200 22009KT P6SM SCT035 BKN060
     FM021600 23011G18KT P6SM VCSH BKN035=

USA.gov is the U.S. government's official web portal to all federal, state and local government web resources and services.